• Join FlightAware (Why Join?)
  • Login
  • US Flag 
03:19AM EST


 

Airport Tracker/Info


-or-


 

Live Flight TrackerFlight Track Log ✈ SWA104 ✈ 02-Nov-2013 ✈ KMKE - KLAS

Flight Track Log - Related Links

Times and Time Zones

All times are in EDT time to prevent confusion due to time zone crossing. See the SWA104 flight status page for this flight to view local times or setup timezone preferences in your user account.

Time Position Orientation Groundspeed Altitude Reporting Facility
EDT Latitude Longitude Course Direction KTS MPH feet Rate Location/Type
05:23PM 43.0033 -87.9250 275° West 184 212 4,100  Level Chicago Center
05:24PM 43.0111 -88.0408 275° West 257 296 7,200 3,300 Climbing Chicago Center
05:25PM 43.0072 -88.1436 267° West 267 307 11,000 3,420 Climbing Chicago Center
05:26PM 43.0000 -88.2681 266° West 319 367 14,300 3,240 Climbing Chicago Center
05:27PM 42.9897 -88.3967 264° West 337 388 17,700 3,120 Climbing Chicago Center
05:28PM 42.9789 -88.5342 264° West 356 410 20,700 2,820 Climbing Chicago Center
05:29PM 42.9689 -88.6769 265° West 372 428 23,600 2,640 Climbing Chicago Center
05:30PM 42.9550 -88.8253 263° West 387 445 26,200 2,100 Climbing Chicago Center
05:31PM 42.9375 -88.9775 261° West 401 461 28,000 1,860 Climbing Chicago Center
05:32PM 42.9103 -89.1633 259° West 414 476 30,100 1,920 Climbing Chicago Center
05:33PM 42.8892 -89.3194 260° West 417 480 32,000 1,860 Climbing Chicago Center
05:34PM 42.8733 -89.4753 262° West 417 480 34,000 1,860 Climbing Chicago Center
05:35PM 42.8564 -89.6267 261° West 410 472 35,900 960 Climbing Chicago Center
05:36PM 42.8386 -89.7783 261° West 409 471 36,000  Climbing Chicago Center
05:37PM 42.8211 -89.9239 261° West 403 464 36,000 420 Level Chicago Center
05:38PM 42.8025 -90.0722 260° West 403 464 36,900 1,080 Climbing Chicago Center
05:40PM 42.7817 -90.2536 261° West 410 472 38,300 1,260 Climbing Chicago Center
05:41PM 42.7633 -90.3989 260° West 399 459 39,600 780 Climbing Chicago Center
05:42PM 42.7450 -90.5453 260° West 397 457 40,000 120 Climbing Chicago Center
05:43PM 42.7075 -90.8386 260° West 397 457 40,000  Level Minneapolis Center
05:44PM 42.6900 -90.9811 261° West 389 448 40,000  Level Minneapolis Center
05:45PM 42.6714 -91.1225 260° West 384 442 40,000  Level Minneapolis Center
05:47PM 42.6533 -91.2625 260° West 380 437 40,000  Level Minneapolis Center
05:48PM 42.6342 -91.4036 260° West 380 437 40,000  Level Minneapolis Center
05:49PM 42.6147 -91.5469 260° West 382 440 40,000  Level Minneapolis Center
05:50PM 42.5961 -91.6892 260° West 380 437 40,000  Level Minneapolis Center
05:51PM 42.5775 -91.8292 260° West 377 434 40,000  Level Minneapolis Center
05:52PM 42.5586 -91.9694 260° West 377 434 40,000  Level Minneapolis Center
05:53PM 42.5383 -92.1114 259° West 382 440 40,000  Level Minneapolis Center
05:54PM 42.5183 -92.2539 259° West 386 444 40,000  Level Minneapolis Center
05:55PM 42.4944 -92.4231 259° West 385 443 40,000  Level Minneapolis Center
05:56PM 42.4744 -92.5642 259° West 384 442 40,000  Level Minneapolis Center
05:57PM 42.4542 -92.7047 259° West 384 442 40,000  Level Minneapolis Center
05:58PM 42.4342 -92.8428 259° West 379 436 40,000  Level Minneapolis Center
05:59PM 42.4139 -92.9797 259° West 375 432 40,000  Level Minneapolis Center
06:00PM 42.3953 -93.1156 260° West 372 428 40,000  Level Minneapolis Center
06:01PM 42.3758 -93.2500 259° West 369 425 40,000  Level Minneapolis Center
06:02PM 42.3517 -93.4103 259° West 366 421 40,000  Level Minneapolis Center
06:03PM 42.3306 -93.5408 258° West 362 417 40,000  Level Minneapolis Center
06:04PM 42.3103 -93.6733 258° West 363 418 40,000  Level Minneapolis Center
06:05PM 42.2897 -93.8053 258° West 362 417 40,000  Level Minneapolis Center
06:06PM 42.2675 -93.9383 257° West 366 421 40,000  Level Minneapolis Center
06:07PM 42.2469 -94.0708 258° West 366 421 40,000  Level Minneapolis Center
06:08PM 42.2258 -94.2028 258° West 365 420 40,000  Level Minneapolis Center
06:09PM 42.2022 -94.3578 258° West 366 421 40,000  Level Minneapolis Center
06:10PM 42.1806 -94.4944 258° West 371 427 40,000  Level Minneapolis Center
06:11PM 42.1581 -94.6319 258° West 375 432 40,000  Level Minneapolis Center
06:12PM 42.1367 -94.7708 258° West 378 435 40,000  Level Minneapolis Center
06:13PM 42.1136 -94.9083 257° West 378 435 40,000  Level Minneapolis Center
06:14PM 42.0900 -95.0442 257° West 374 430 40,000  Level Minneapolis Center
06:15PM 42.0628 -95.2111 258° West 380 437 40,000  Level Minneapolis Center
06:16PM 42.0386 -95.3486 257° West 379 436 40,000  Level Minneapolis Center
06:17PM 42.0164 -95.4856 258° West 378 435 40,000  Level Minneapolis Center
06:18PM 41.9922 -95.6217 257° West 377 434 40,000  Level Minneapolis Center
06:19PM 41.9686 -95.7594 257° West 378 435 40,000  Level Minneapolis Center
06:20PM 41.9439 -95.8964 256° West 380 437 40,000  Level Minneapolis Center
06:21PM 41.9203 -96.0322 257° West 377 434 40,000  Level Minneapolis Center
06:22PM 41.8961 -96.1711 257° West 382 440 40,000  Level Minneapolis Center
06:23PM 41.8669 -96.3367 257° West 383 441 40,000  Level Minneapolis Center
06:24PM 41.8419 -96.4731 256° West 381 438 40,000  Level Minneapolis Center
06:25PM 41.8167 -96.6081 256° West 377 434 40,000  Level Minneapolis Center
06:26PM 41.7919 -96.7442 256° West 377 434 40,000  Level Minneapolis Center
06:27PM 41.7675 -96.8806 257° West 378 435 40,000  Level Minneapolis Center
06:28PM 41.7422 -97.0147 256° West 374 430 40,000  Level Minneapolis Center
06:29PM 41.7164 -97.1511 256° West 377 434 40,000  Level Minneapolis Center
06:30PM 41.6858 -97.3161 256° West 381 438 40,000  Level Minneapolis Center
06:32PM 41.6592 -97.4531 255° West 382 440 40,000  Level Minneapolis Center
06:33PM 41.6328 -97.5922 256° West 384 442 40,000  Level Minneapolis Center
06:34PM 41.6053 -97.7322 255° West 386 444 40,000  Level Minneapolis Center
06:35PM 41.5778 -97.8733 255° West 390 449 40,000  Level Minneapolis Center
06:36PM 41.5508 -98.0139 256° West 391 450 40,000  Level Minneapolis Center
06:37PM 41.5244 -98.1517 256° West 390 449 40,000  Level Minneapolis Center
06:38PM 41.4961 -98.2908 255° West 389 448 40,000  Level Minneapolis Center
06:39PM 41.4636 -98.4567 255° West 388 447 40,000  Level Minneapolis Center
06:40PM 41.4356 -98.5975 255° West 389 448 40,000  Level Minneapolis Center
06:41PM 41.4078 -98.7358 255° West 387 445 40,000  Level Minneapolis Center
06:42PM 41.3786 -98.8717 254° West 385 443 40,000  Level Minneapolis Center
06:43PM 41.3503 -99.0094 255° West 385 443 40,000  Level Minneapolis Center
06:44PM 41.3197 -99.1450 253° West 385 443 40,000  Level Minneapolis Center
06:45PM 41.3031 -99.2472 258° West 383 441 40,000  Level Denver Center
06:46PM 41.2742 -99.3819 254° West 382 440 40,000  Level Denver Center
06:47PM 41.2417 -99.5347 254° West 383 441 40,000  Level Denver Center
06:48PM 41.2139 -99.6653 254° West 385 443 40,000  Level Denver Center
06:49PM 41.1819 -99.8172 254° West 384 442 40,000  Level Denver Center
06:50PM 41.1544 -99.9483 254° West 385 443 40,000  Level Denver Center
06:51PM 41.1219 -100.1006 254° West 385 443 40,000  Level Denver Center
06:52PM 41.0928 -100.2300 253° West 384 442 40,000  Level Denver Center
06:53PM 41.0603 -100.3819 254° West 385 443 40,000  Level Denver Center
06:54PM 41.0322 -100.5108 254° West 384 442 40,000  Level Denver Center
06:55PM 41.0039 -100.6394 254° West 383 441 40,000  Level Denver Center
06:56PM 40.9700 -100.7889 253° West 385 443 40,000  Level Denver Center
06:57PM 40.9367 -100.9350 253° West 377 434 40,000  Level Denver Center
06:58PM 40.9078 -101.0625 253° West 380 437 40,000  Level Denver Center
06:59PM 40.8783 -101.1903 253° West 382 440 40,000  Level Denver Center
07:00PM 40.8444 -101.3408 253° West 383 441 40,000  Level Denver Center
07:01PM 40.8139 -101.4694 253° West 384 442 40,000  Level Denver Center
07:02PM 40.7789 -101.6203 253° West 386 444 40,000  Level Denver Center
07:03PM 40.7494 -101.7497 253° West 387 445 40,000  Level Denver Center
07:04PM 40.7133 -101.8997 252° West 385 443 40,000  Level Denver Center
07:05PM 40.6828 -102.0275 253° West 383 441 40,000  Level Denver Center
07:06PM 40.6536 -102.1547 253° West 381 438 40,000  Level Denver Center
07:07PM 40.6183 -102.3019 253° West 378 435 40,000  Level Denver Center
07:08PM 40.5886 -102.4275 253° West 377 434 40,000  Level Denver Center
07:09PM 40.5525 -102.5758 252° West 381 438 40,000  Level Denver Center
07:10PM 40.5200 -102.7086 252° West 379 436 40,000  Level Denver Center
07:11PM 40.4881 -102.8419 253° West 384 442 40,000  Level Denver Center
07:12PM 40.4561 -102.9731 252° West 379 436 40,000  Level Denver Center
07:13PM 40.4233 -103.1061 252° West 382 440 40,000  Level Denver Center
07:14PM 40.3900 -103.2378 252° West 382 440 40,000  Level Denver Center
07:15PM 40.3578 -103.3692 252° West 380 437 40,000  Level Denver Center
07:16PM 40.3244 -103.5008 252° West 383 441 40,000  Level Denver Center
07:17PM 40.2842 -103.6583 252° West 382 440 40,000  Level Denver Center
07:18PM 40.2508 -103.7944 252° West 399 459 40,000  Level Denver Center
07:19PM 40.2172 -103.9231 251° West 377 434 40,000  Level Denver Center
07:20PM 40.1842 -104.0550 252° West 381 438 40,000  Level Denver Center
07:21PM 40.1511 -104.1825 251° West 374 430 40,000  Level Denver Center
07:23PM 40.1178 -104.3125 252° West 377 434 40,000  Level Denver Center
07:24PM 40.0836 -104.4417 251° West 379 436 40,000  Level Denver Center
07:25PM 40.0506 -104.5711 252° West 380 437 40,000  Level Denver Center
07:26PM 40.0103 -104.7261 251° West 378 435 40,000  Level Denver Center
07:27PM 39.9764 -104.8539 251° West 375 432 40,000  Level Denver Center
07:28PM 39.9411 -104.9839 251° West 371 427 40,000  Level Denver Center
07:29PM 39.9072 -105.1075 250° West 365 420 40,000  Level Denver Center
07:30PM 39.8756 -105.2236 250° West 359 413 40,000  Level Denver Center
07:31PM 39.8422 -105.3489 251° West 368 423 40,000  Level Denver Center
07:32PM 39.8003 -105.5000 250° West 371 427 40,000  Level Denver Center
07:33PM 39.7661 -105.6267 251° West 374 430 40,000  Level Denver Center
07:34PM 39.7308 -105.7542 250° West 377 434 40,000  Level Denver Center
07:35PM 39.6964 -105.8811 251° West 373 429 40,000  Level Denver Center
07:36PM 39.6603 -106.0136 251° West 386 444 40,000  Level Denver Center
07:37PM 39.6231 -106.1433 250° West 384 442 40,000  Level Denver Center
07:38PM 39.5861 -106.2783 250° West 378 435 40,000  Level Denver Center
07:39PM 39.5492 -106.4069 250° West 380 437 40,000  Level Denver Center
07:40PM 39.5103 -106.5444 250° West 380 437 40,000  Level Denver Center
07:41PM 39.4756 -106.6669 250° West 380 437 40,000  Level Denver Center
07:42PM 39.4275 -106.8064 246° West 380 437 40,000  Level Denver Center
07:43PM 39.3861 -106.9253 246° West 380 437 40,000  Level Denver Center
07:44PM 39.3406 -107.0622 247° West 376 433 40,000  Level Denver Center
07:45PM 39.2981 -107.1803 245° Southwest 377 434 40,000  Level Denver Center
07:46PM 39.2558 -107.2986 245° Southwest 378 435 40,000  Level Denver Center
07:47PM 39.2083 -107.4356 246° West 375 432 40,000  Level Denver Center
07:48PM 39.1664 -107.5531 245° Southwest 376 433 40,000  Level Denver Center
07:49PM 39.1178 -107.6883 245° Southwest 373 429 40,000  Level Denver Center
07:50PM 39.0758 -107.8031 245° Southwest 371 427 40,000  Level Denver Center
07:51PM 39.0353 -107.9186 246° West 369 425 40,000  Level Denver Center
07:52PM 38.9864 -108.0539 245° Southwest 372 428 40,000  Level Denver Center
07:53PM 38.9444 -108.1689 245° Southwest 370 426 40,000  Level Denver Center
07:54PM 38.9019 -108.2844 245° Southwest 372 428 40,000  Level Denver Center
07:55PM 38.8544 -108.4169 245° Southwest 366 421 40,000  Level Denver Center
07:56PM 38.8133 -108.5289 245° Southwest 363 418 40,000  Level Denver Center
07:57PM 38.7650 -108.6600 245° Southwest 362 417 40,000  Level Denver Center
07:58PM 38.7239 -108.7714 245° Southwest 361 415 40,000  Level Denver Center
07:59PM 38.6822 -108.8853 245° Southwest 368 423 40,000  Level Denver Center
08:00PM 38.6325 -109.0175 244° Southwest 368 423 40,000  Level Denver Center
08:01PM 38.5908 -109.1314 245° Southwest 368 423 40,000  Level Denver Center
08:02PM 38.5400 -109.2617 244° Southwest 368 423 40,000  Level Denver Center
08:03PM 38.4978 -109.3736 244° Southwest 366 421 40,000  Level Denver Center
08:05PM 38.4556 -109.4856 244° Southwest 366 421 40,000  Level Denver Center
08:06PM 38.4069 -109.6156 245° Southwest 364 419 40,000  Level Denver Center
08:07PM 38.3642 -109.7256 244° Southwest 363 418 40,000  Level Denver Center
08:08PM 38.3147 -109.8561 244° Southwest 366 421 40,000  Level Denver Center
08:09PM 38.2722 -109.9650 244° Southwest 360 414 40,000 -180 Level Denver Center
08:10PM 38.2292 -110.0764 244° Southwest 364 419 39,700 -720 Descending Denver Center
08:11PM 38.1803 -110.2067 245° Southwest 365 420 38,600 -1,020 Descending Denver Center
08:12PM 38.1347 -110.3189 243° Southwest 370 426 37,700 -960 Descending Denver Center
08:13PM 38.0833 -110.4503 244° Southwest 372 428 36,700 -960 Descending Denver Center
08:14PM 38.0383 -110.5661 244° Southwest 380 437 35,800 -900 Descending Denver Center
08:15PM 37.9936 -110.6808 244° Southwest 381 438 34,900 -900 Descending Denver Center
08:16PM 37.9447 -110.8017 243° Southwest 384 442 34,000 -1,080 Descending Denver Center
08:17PM 37.8861 -110.9514 244° Southwest 393 452 32,800 -1,020 Descending Salt Lake Center
08:18PM 37.8358 -111.0761 243° Southwest 398 458 32,000 -360 Descending Denver Center
08:19PM 37.7767 -111.2247 243° Southwest 395 455 32,000  Level Denver Center
08:20PM 37.7269 -111.3483 243° Southwest 395 455 32,000  Level Denver Center
08:21PM 37.6867 -111.4475 243° Southwest 396 456 32,000  Level Salt Lake Center
08:22PM 37.6372 -111.5711 243° Southwest 396 456 32,000 -240 Level Salt Lake Center
08:23PM 37.5761 -111.7214 243° Southwest 401 461 31,500 -720 Descending Denver Center
08:24PM 37.5253 -111.8442 242° Southwest 396 456 30,400 -900 Descending Denver Center
08:25PM 37.4847 -111.9428 243° Southwest 396 456 30,000 -240 Descending Salt Lake Center
08:26PM 37.4347 -112.0642 243° Southwest 393 452 30,000  Level Salt Lake Center
08:27PM 37.4022 -112.1406 242° Southwest 396 456 30,000  Level Los Angeles Center
08:28PM 37.3344 -112.3036 242° Southwest 428 493 30,000  Level Los Angeles Center
08:29PM 37.2792 -112.4392 243° Southwest 433 498 30,000  Level Los Angeles Center
08:30PM 37.2231 -112.5739 242° Southwest 433 498 30,000  Level Los Angeles Center
08:31PM 37.1656 -112.7094 242° Southwest 435 501 30,000  Level Los Angeles Center
08:32PM 37.1086 -112.8453 242° Southwest 437 503 30,000 -540 Level Los Angeles Center
08:33PM 37.0511 -112.9806 242° Southwest 437 503 28,900 -1,080 Descending Los Angeles Center
08:34PM 36.9956 -113.1133 242° Southwest 433 498 27,900 -1,020 Descending Los Angeles Center
08:35PM 36.9386 -113.2444 242° Southwest 429 494 26,900 -1,020 Descending Los Angeles Center
08:36PM 36.8836 -113.3747 242° Southwest 425 489 25,900 -1,020 Descending Los Angeles Center
08:37PM 36.8278 -113.5025 241° Southwest 420 483 24,900 -960 Descending Los Angeles Center
08:38PM 36.7631 -113.6539 242° Southwest 413 475 24,000 -480 Descending Los Angeles Center
08:39PM 36.7092 -113.7781 242° Southwest 409 471 24,000 -60 Level Los Angeles Center
08:40PM 36.6558 -113.9008 242° Southwest 405 466 23,900 -1,320 Descending Los Angeles Center
08:41PM 36.6008 -114.0228 241° Southwest 404 465 21,300 -2,640 Descending Los Angeles Center
08:42PM 36.5503 -114.1408 242° Southwest 388 447 18,500 -2,700 Descending Los Angeles Center
08:43PM 36.5000 -114.2483 240° Southwest 376 433 15,800 -2,820 Descending Los Angeles Center
08:44PM 36.4539 -114.3606 243° Southwest 361 415 13,200 -3,060 Descending Los Angeles Center
08:44PM 36.4408 -114.3781 227° Southwest 361 415 12,700 -1,080 Descending Los Angeles Center
08:45PM 36.3989 -114.4731 241° Southwest 317 365 12,000 -720 Descending Los Angeles Center
08:45PM 36.3947 -114.4739 189° South 324 373 12,000 -840 Level Los Angeles Center
08:46PM 36.3264 -114.5164 207° Southwest 281 323 11,200 -840 Descending Los Angeles Center
08:46PM 36.3239 -114.5139 141° Southeast 281 323 11,200 -960 Level Los Angeles Center
08:47PM 36.2506 -114.5522 203° Southwest 282 325 10,200 -1,080 Descending Los Angeles Center
08:47PM 36.2467 -114.5569 224° Southwest 281 323 10,100 -1,080 Descending Los Angeles Center
08:48PM 36.1903 -114.6053 215° Southwest 279 321 9,200 -900 Descending Los Angeles Center
08:48PM 36.1878 -114.6047 170° South 270 311 9,200 -1,020 Level Los Angeles Center
08:49PM 36.1325 -114.6672 222° Southwest 262 302 8,200 -1,020 Descending Los Angeles Center
08:49PM 36.1314 -114.6647 119° Southeast 268 308 8,200 -180 Level Los Angeles Center
08:50PM 36.0803 -114.7181 220° Southwest 254 292 8,000 -660 Descending Los Angeles Center
08:51PM 36.0747 -114.7961 265° West 237 273 7,000 -1,020 Descending Los Angeles Center
08:51PM 36.0736 -114.7928 112° Southeast 242 278 7,000 -660 Level Los Angeles Center
08:52PM 36.0744 -114.8839 271° West 228 262 6,300 -540 Descending Los Angeles Center
08:52PM 36.0731 -114.8717 98° East 235 270 6,500 -1,200 Climbing Los Angeles Center
08:53PM 36.0731 -114.9564 270° West 209 241 5,100 -1,200 Descending Los Angeles Center
08:53PM 36.0733 -114.9453 88° East 225 259 5,300 -1,560 Climbing Los Angeles Center
08:54PM 36.0736 -115.0175 270° West 198 228 3,700 -1,800 Descending Los Angeles Center
08:54PM 36.0736 -115.0264 270° West 209 241 3,500 -900 Descending Los Angeles Center
08:55PM 36.0733 -115.0800 270° West 179 206 2,700 -780 Descending Los Angeles Center
08:56PM 36.0742 -115.1275 271° West 153 176 2,000 -720 Descending Los Angeles Center
08:58PM 36.0667 -115.1500 219° Southwest  Level FlightAware Approximate
09:05PM 36.0801 -115.1523 219° Southwest  Level Estimated